createdAt,value
2019-06-20T00:00:12.874Z,0.00
2019-06-20T00:01:12.870Z,0.00
2019-06-20T00:02:12.935Z,0.00
2019-06-20T00:03:12.841Z,0.00
2019-06-20T00:04:12.821Z,0.00
2019-06-20T00:05:12.809Z,0.00
2019-06-20T00:06:12.804Z,0.00
2019-06-20T00:07:12.809Z,0.00
2019-06-20T00:08:12.780Z,0.00
2019-06-20T00:09:12.766Z,0.00
2019-06-20T00:10:12.749Z,0.00
2019-06-20T00:11:12.756Z,0.00
2019-06-20T00:12:12.745Z,0.00
2019-06-20T00:13:12.765Z,0.00
2019-06-20T00:14:12.742Z,0.00
2019-06-20T00:15:12.698Z,0.00
2019-06-20T00:16:12.683Z,0.00
2019-06-20T00:17:12.679Z,0.00
2019-06-20T00:18:12.709Z,0.00
2019-06-20T00:19:12.675Z,0.00
2019-06-20T00:20:12.643Z,0.00
2019-06-20T00:21:12.625Z,0.00
2019-06-20T00:22:12.620Z,0.00
2019-06-20T00:23:12.618Z,0.00
2019-06-20T00:24:12.614Z,0.00
2019-06-20T00:25:12.586Z,0.00
2019-06-20T00:26:12.573Z,0.00
2019-06-20T00:27:12.588Z,0.00
2019-06-20T00:28:12.551Z,0.00
2019-06-20T00:29:12.560Z,0.00
2019-06-20T00:30:12.554Z,0.00
2019-06-20T00:31:12.515Z,0.00
2019-06-20T00:32:12.506Z,0.00
2019-06-20T00:33:12.505Z,0.00
2019-06-20T00:34:12.520Z,0.00
2019-06-20T00:35:12.482Z,0.00
2019-06-20T00:36:12.488Z,0.00
2019-06-20T00:37:12.449Z,0.00
2019-06-20T00:38:12.439Z,0.00
2019-06-20T00:39:12.459Z,0.00
2019-06-20T00:40:12.474Z,0.00
2019-06-20T00:41:12.428Z,0.00
2019-06-20T00:42:12.452Z,0.00
2019-06-20T00:43:17.641Z,0.00
2019-06-20T00:44:12.436Z,0.00
2019-06-20T00:45:12.360Z,0.00
2019-06-20T00:46:12.386Z,0.00
2019-06-20T00:47:12.390Z,0.00
2019-06-20T00:48:12.349Z,0.00
2019-06-20T00:49:12.323Z,0.00
2019-06-20T00:50:12.313Z,0.00
2019-06-20T00:51:12.289Z,0.00
2019-06-20T00:52:12.303Z,0.00
2019-06-20T00:53:12.288Z,0.00
2019-06-20T00:54:12.281Z,0.00
2019-06-20T00:55:12.253Z,0.00
2019-06-20T00:56:12.266Z,0.00
2019-06-20T00:57:12.223Z,0.00
2019-06-20T00:58:12.219Z,0.00
2019-06-20T00:59:12.221Z,0.00
2019-06-20T01:00:12.236Z,0.00
2019-06-20T01:01:12.180Z,0.00
2019-06-20T01:02:12.169Z,0.00
2019-06-20T01:03:12.165Z,0.00
2019-06-20T01:04:12.158Z,0.00
2019-06-20T01:05:12.152Z,0.00
2019-06-20T01:06:12.132Z,0.00
2019-06-20T01:07:12.108Z,0.00
2019-06-20T01:08:12.099Z,0.00
2019-06-20T01:09:12.110Z,0.00
2019-06-20T01:10:12.097Z,0.00
2019-06-20T01:11:12.093Z,0.00
2019-06-20T01:12:12.054Z,0.00
2019-06-20T01:13:12.051Z,0.00
2019-06-20T01:14:12.044Z,0.00
2019-06-20T01:15:12.035Z,0.00
2019-06-20T01:16:12.058Z,0.00
2019-06-20T01:17:11.996Z,0.00
2019-06-20T01:18:11.991Z,0.00
2019-06-20T01:19:12.002Z,0.00
2019-06-20T01:20:11.978Z,0.00
2019-06-20T01:21:11.978Z,0.00
2019-06-20T01:22:11.963Z,0.00
2019-06-20T01:23:11.930Z,0.00
2019-06-20T01:24:11.921Z,0.00
2019-06-20T01:25:11.922Z,0.00
2019-06-20T01:26:11.917Z,0.00
2019-06-20T01:27:11.908Z,0.00
2019-06-20T01:28:11.891Z,0.00
2019-06-20T01:29:11.869Z,0.00
2019-06-20T01:30:11.855Z,0.00
2019-06-20T01:31:11.853Z,0.00
2019-06-20T01:32:11.886Z,0.00
2019-06-20T01:33:11.833Z,0.00
2019-06-20T01:34:11.837Z,0.00
2019-06-20T01:35:11.802Z,0.00
2019-06-20T01:36:11.849Z,0.00
2019-06-20T01:37:11.856Z,0.00
2019-06-20T01:38:11.784Z,0.00
2019-06-20T01:39:11.769Z,0.00
2019-06-20T01:40:11.768Z,0.00
2019-06-20T01:41:11.733Z,0.00
2019-06-20T01:42:11.721Z,0.00
2019-06-20T01:43:11.724Z,0.00
2019-06-20T01:44:11.707Z,0.00
2019-06-20T01:45:11.701Z,0.00
2019-06-20T01:46:11.725Z,0.00
2019-06-20T01:47:11.660Z,0.00
2019-06-20T01:48:11.707Z,0.00
2019-06-20T01:49:11.649Z,0.00
2019-06-20T01:50:11.648Z,0.00
2019-06-20T01:51:11.646Z,0.00
2019-06-20T01:52:11.651Z,0.00
2019-06-20T01:53:11.648Z,0.00
2019-06-20T01:54:11.597Z,0.00
2019-06-20T01:55:11.582Z,0.00
2019-06-20T01:56:11.628Z,0.00
2019-06-20T01:57:11.580Z,0.00
2019-06-20T01:58:11.545Z,0.00
2019-06-20T01:59:11.534Z,0.00
2019-06-20T02:00:11.539Z,0.00
2019-06-20T02:01:11.537Z,0.00
2019-06-20T02:02:11.520Z,0.00
2019-06-20T02:03:11.502Z,0.00
2019-06-20T02:04:11.480Z,0.00
2019-06-20T02:05:11.521Z,0.00
2019-06-20T02:06:11.454Z,0.00
2019-06-20T02:07:11.464Z,0.00
2019-06-20T02:08:11.565Z,0.00
2019-06-20T02:09:11.442Z,0.00
2019-06-20T02:10:11.414Z,0.00
2019-06-20T02:11:11.423Z,0.00
2019-06-20T02:12:11.421Z,0.00
2019-06-20T02:13:11.383Z,0.00
2019-06-20T02:14:11.384Z,0.00
2019-06-20T02:15:11.370Z,0.00
2019-06-20T02:16:11.357Z,0.00
2019-06-20T02:17:11.359Z,0.00
2019-06-20T02:18:11.394Z,0.00
2019-06-20T02:19:11.358Z,0.00
2019-06-20T02:20:11.321Z,0.00
2019-06-20T02:21:11.313Z,0.00
2019-06-20T02:22:11.276Z,0.00
2019-06-20T02:23:11.267Z,0.00
2019-06-20T02:24:11.250Z,0.00
2019-06-20T02:25:11.248Z,0.00
2019-06-20T02:26:11.307Z,0.00
2019-06-20T02:27:11.269Z,0.00
2019-06-20T02:28:11.258Z,0.00
2019-06-20T02:29:11.195Z,0.00
2019-06-20T02:30:11.194Z,0.00
2019-06-20T02:31:11.193Z,0.00
2019-06-20T02:32:11.180Z,0.00
2019-06-20T02:33:11.156Z,0.00
2019-06-20T02:34:11.147Z,0.00
2019-06-20T02:35:11.153Z,0.00
2019-06-20T02:36:11.128Z,0.00
2019-06-20T02:37:11.121Z,0.00
2019-06-20T02:38:11.120Z,0.00
2019-06-20T02:39:11.120Z,0.00
2019-06-20T02:40:11.084Z,0.00
2019-06-20T02:41:11.058Z,0.00
2019-06-20T02:42:11.065Z,0.00
2019-06-20T02:43:11.059Z,0.00
2019-06-20T02:44:28.520Z,0.00
2019-06-20T02:45:11.060Z,0.00
2019-06-20T02:46:11.025Z,0.00
2019-06-20T02:47:11.005Z,0.00
2019-06-20T02:48:11.014Z,0.00
2019-06-20T02:49:10.987Z,0.00
2019-06-20T02:50:10.989Z,0.00
2019-06-20T02:51:10.942Z,0.00
2019-06-20T02:52:10.934Z,0.00
2019-06-20T02:53:10.922Z,0.00
2019-06-20T02:54:10.928Z,0.00
2019-06-20T02:55:10.927Z,0.00
2019-06-20T02:56:10.895Z,4.00
2019-06-20T02:57:10.887Z,4.00
2019-06-20T02:58:10.874Z,4.00
2019-06-20T02:59:10.857Z,4.00
2019-06-20T03:00:10.917Z,4.00
2019-06-20T03:01:10.855Z,4.00
2019-06-20T03:02:10.825Z,0.00
2019-06-20T03:03:10.836Z,4.00
2019-06-20T03:04:10.800Z,4.00
2019-06-20T03:05:10.836Z,4.00
2019-06-20T03:06:10.807Z,8.00
2019-06-20T03:07:10.795Z,4.00
2019-06-20T03:08:10.784Z,4.00
2019-06-20T03:09:10.749Z,4.00
2019-06-20T03:10:10.742Z,4.00
2019-06-20T03:11:10.748Z,4.00
2019-06-20T03:12:10.774Z,8.00
2019-06-20T03:13:10.725Z,8.00
2019-06-20T03:14:10.738Z,8.00
2019-06-20T03:15:10.675Z,8.00
2019-06-20T03:16:10.762Z,8.00
2019-06-20T03:17:10.672Z,12.00
2019-06-20T03:18:10.669Z,20.00
2019-06-20T03:19:10.636Z,20.00
2019-06-20T03:20:10.757Z,24.00
2019-06-20T03:21:10.647Z,24.00
2019-06-20T03:22:10.635Z,24.00
2019-06-20T03:23:10.592Z,24.00
2019-06-20T03:24:10.597Z,24.00
2019-06-20T03:25:10.567Z,28.00
2019-06-20T03:26:10.557Z,28.00
2019-06-20T03:27:10.549Z,36.00
2019-06-20T03:28:10.545Z,36.00
2019-06-20T03:29:10.530Z,40.00
2019-06-20T03:30:10.536Z,40.00
2019-06-20T03:31:10.508Z,40.00
2019-06-20T03:32:10.496Z,44.00
2019-06-20T03:33:10.475Z,44.00
2019-06-20T03:34:10.496Z,48.00
2019-06-20T03:35:10.476Z,44.00
2019-06-20T03:36:10.470Z,48.00
2019-06-20T03:37:10.496Z,52.00
2019-06-20T03:38:10.418Z,56.00
2019-06-20T03:39:10.404Z,60.00
2019-06-20T03:40:10.425Z,68.00
2019-06-20T03:41:10.394Z,72.00
2019-06-20T03:42:10.376Z,80.00
2019-06-20T03:43:10.370Z,88.00
2019-06-20T03:44:10.349Z,92.00
2019-06-20T03:45:10.338Z,104.00
2019-06-20T03:46:10.363Z,116.00
2019-06-20T03:47:10.337Z,124.00
2019-06-20T03:48:10.361Z,132.00
2019-06-20T03:49:10.293Z,132.00
2019-06-20T03:50:10.280Z,140.00
2019-06-20T03:51:10.281Z,152.00
2019-06-20T03:52:10.282Z,164.00
2019-06-20T03:53:10.302Z,172.00
2019-06-20T03:54:10.294Z,180.00
2019-06-20T03:55:10.226Z,188.00
2019-06-20T03:56:10.216Z,196.00
2019-06-20T03:57:10.213Z,200.00
2019-06-20T03:58:10.235Z,204.00
2019-06-20T03:59:10.210Z,208.00
2019-06-20T04:00:10.171Z,220.00
2019-06-20T04:01:10.188Z,220.00
2019-06-20T04:02:10.153Z,216.00
2019-06-20T04:03:10.164Z,212.00
2019-06-20T04:04:10.185Z,200.00
2019-06-20T04:05:10.115Z,196.00
2019-06-20T04:06:10.106Z,196.00
2019-06-20T04:07:10.090Z,204.00
2019-06-20T04:08:10.091Z,208.00
2019-06-20T04:09:10.088Z,212.00
2019-06-20T04:10:10.095Z,216.00
2019-06-20T04:11:10.047Z,236.00
2019-06-20T04:12:10.042Z,240.00
2019-06-20T04:13:10.034Z,244.00
2019-06-20T04:14:10.021Z,252.00
2019-06-20T04:15:18.969Z,268.00
2019-06-20T04:16:10.040Z,272.00
2019-06-20T04:17:09.986Z,272.00
2019-06-20T04:18:09.972Z,260.00
2019-06-20T04:19:10.044Z,244.00
2019-06-20T04:20:09.953Z,228.00
2019-06-20T04:21:09.966Z,232.00
2019-06-20T04:22:09.951Z,236.00
2019-06-20T04:23:09.919Z,236.00
2019-06-20T04:24:09.899Z,228.00
2019-06-20T04:25:09.890Z,232.00
2019-06-20T04:26:09.905Z,244.00
2019-06-20T04:27:09.887Z,244.00
2019-06-20T04:28:09.854Z,236.00
2019-06-20T04:29:09.846Z,236.00
2019-06-20T04:30:09.834Z,232.00
2019-06-20T04:31:09.900Z,232.00
2019-06-20T04:32:09.832Z,236.00
2019-06-20T04:33:09.819Z,260.00
2019-06-20T04:34:09.791Z,276.00
2019-06-20T04:35:09.781Z,268.00
2019-06-20T04:36:09.773Z,264.00
2019-06-20T04:37:09.779Z,276.00
2019-06-20T04:38:09.752Z,284.00
2019-06-20T04:39:18.629Z,292.00
2019-06-20T04:40:09.724Z,288.00
2019-06-20T04:41:09.707Z,284.00
2019-06-20T04:42:09.707Z,268.00
2019-06-20T04:43:09.689Z,268.00
2019-06-20T04:44:09.686Z,264.00
2019-06-20T04:45:09.683Z,264.00
2019-06-20T04:46:09.650Z,256.00
2019-06-20T04:47:09.649Z,256.00
2019-06-20T04:48:09.630Z,256.00
2019-06-20T04:49:09.655Z,268.00
2019-06-20T04:50:09.633Z,268.00
2019-06-20T04:51:09.621Z,268.00
2019-06-20T04:52:09.641Z,280.00
2019-06-20T04:53:09.574Z,296.00
2019-06-20T04:54:09.602Z,316.00
2019-06-20T04:55:09.582Z,368.00
2019-06-20T04:56:09.559Z,400.00
2019-06-20T04:57:09.583Z,424.00
2019-06-20T04:58:09.516Z,492.00
2019-06-20T04:59:09.512Z,624.00
2019-06-20T05:00:09.519Z,652.00
2019-06-20T05:01:09.531Z,616.00
2019-06-20T05:02:09.487Z,620.00
2019-06-20T05:03:09.495Z,636.00
2019-06-20T05:04:09.481Z,664.00
2019-06-20T05:05:09.447Z,696.00
2019-06-20T05:06:09.436Z,672.00
2019-06-20T05:07:09.435Z,664.00
2019-06-20T05:08:09.431Z,672.00
2019-06-20T05:09:09.394Z,704.00
2019-06-20T05:10:09.384Z,744.00
2019-06-20T05:11:09.386Z,796.00
2019-06-20T05:12:09.368Z,848.00
2019-06-20T05:13:09.395Z,888.00
2019-06-20T05:14:09.356Z,952.00
2019-06-20T05:15:09.323Z,1064.00
2019-06-20T05:16:09.317Z,1128.00
2019-06-20T05:17:09.305Z,1108.00
2019-06-20T05:18:09.309Z,1120.00
2019-06-20T05:19:09.302Z,1332.00
2019-06-20T05:20:09.298Z,1400.00
2019-06-20T05:21:09.257Z,1520.00
2019-06-20T05:22:09.253Z,1660.00
2019-06-20T05:23:09.246Z,1736.00
2019-06-20T05:24:09.243Z,1580.00
2019-06-20T05:25:09.228Z,1176.00
2019-06-20T05:26:09.203Z,808.00
2019-06-20T05:27:09.192Z,600.00
2019-06-20T05:28:09.181Z,492.00
2019-06-20T05:29:09.293Z,408.00
2019-06-20T05:30:09.171Z,356.00
2019-06-20T05:31:09.168Z,336.00
2019-06-20T05:32:09.139Z,328.00
2019-06-20T05:33:09.126Z,336.00
2019-06-20T05:34:09.110Z,372.00
2019-06-20T05:35:09.143Z,452.00
2019-06-20T05:36:09.107Z,532.00
2019-06-20T05:37:09.096Z,624.00
2019-06-20T05:38:09.070Z,672.00
2019-06-20T05:39:09.066Z,796.00
2019-06-20T05:40:09.059Z,920.00
2019-06-20T05:41:09.049Z,904.00
2019-06-20T05:42:09.042Z,848.00
2019-06-20T05:43:09.008Z,760.00
2019-06-20T05:44:09.008Z,684.00
2019-06-20T05:45:09.025Z,664.00
2019-06-20T05:46:11.140Z,660.00
2019-06-20T05:47:13.547Z,620.00
2019-06-20T05:48:08.968Z,592.00
2019-06-20T05:49:08.984Z,588.00
2019-06-20T05:50:08.931Z,568.00
2019-06-20T05:51:08.925Z,568.00
2019-06-20T05:52:08.920Z,532.00
2019-06-20T05:53:08.918Z,504.00
2019-06-20T05:54:08.906Z,512.00
2019-06-20T05:55:08.880Z,592.00
2019-06-20T05:56:08.876Z,728.00
2019-06-20T05:57:08.855Z,888.00
2019-06-20T05:58:08.872Z,1056.00
2019-06-20T05:59:08.864Z,1180.00
2019-06-20T06:00:08.919Z,1128.00
2019-06-20T06:01:08.889Z,1028.00
2019-06-20T06:02:08.804Z,904.00
2019-06-20T06:03:08.788Z,844.00
2019-06-20T06:04:08.995Z,876.00
2019-06-20T06:05:08.790Z,1020.00
2019-06-20T06:06:08.756Z,1184.00
2019-06-20T06:07:08.744Z,1356.00
2019-06-20T06:08:08.727Z,1744.00
2019-06-20T06:09:09.662Z,2232.00
2019-06-20T06:10:08.726Z,2540.00
2019-06-20T06:11:08.710Z,2652.00
2019-06-20T06:12:09.772Z,2432.00
2019-06-20T06:13:08.687Z,2228.00
2019-06-20T06:14:08.667Z,2292.00
2019-06-20T06:15:08.662Z,2636.00
2019-06-20T06:16:22.573Z,2424.00
2019-06-20T06:17:08.689Z,2396.00
2019-06-20T06:18:08.621Z,2312.00
2019-06-20T06:19:08.606Z,2224.00
2019-06-20T06:20:08.599Z,2040.00
2019-06-20T06:21:08.595Z,1984.00
2019-06-20T06:22:08.587Z,2196.00
2019-06-20T06:23:08.585Z,2420.00
2019-06-20T06:24:08.545Z,2500.00
2019-06-20T06:25:08.538Z,2804.00
2019-06-20T06:26:08.542Z,2928.00
2019-06-20T06:27:08.527Z,3248.00
2019-06-20T06:28:12.115Z,3792.00
2019-06-20T06:29:08.492Z,3276.00
2019-06-20T06:30:08.494Z,2716.00
2019-06-20T06:31:08.465Z,2440.00
2019-06-20T06:32:08.482Z,2224.00
2019-06-20T06:33:08.482Z,2032.00
2019-06-20T06:34:08.467Z,2076.00
2019-06-20T06:35:08.424Z,2280.00
2019-06-20T06:36:08.414Z,2536.00
2019-06-20T06:37:08.402Z,2556.00
2019-06-20T06:38:08.432Z,2444.00
2019-06-20T06:39:08.417Z,2344.00
2019-06-20T06:40:08.388Z,1960.00
2019-06-20T06:41:08.356Z,1772.00
2019-06-20T06:42:08.349Z,1588.00
2019-06-20T06:43:08.474Z,1436.00
2019-06-20T06:44:08.587Z,1312.00
2019-06-20T06:45:08.330Z,1292.00
2019-06-20T06:46:08.323Z,1288.00
2019-06-20T06:47:08.287Z,1372.00
2019-06-20T06:48:08.298Z,1536.00
2019-06-20T06:49:08.284Z,1676.00
2019-06-20T06:50:08.262Z,1812.00
2019-06-20T06:51:08.261Z,1896.00
2019-06-20T06:52:08.233Z,1920.00
2019-06-20T06:53:08.233Z,1868.00
2019-06-20T06:54:08.255Z,1956.00
2019-06-20T06:55:08.209Z,1996.00
2019-06-20T06:56:08.198Z,1932.00
2019-06-20T06:57:08.199Z,2216.00
2019-06-20T06:58:08.165Z,2620.00
2019-06-20T06:59:08.162Z,2844.00
2019-06-20T07:00:08.159Z,2888.00
2019-06-20T07:01:10.323Z,2840.00
2019-06-20T07:02:08.139Z,2740.00
2019-06-20T07:03:08.144Z,2724.00
2019-06-20T07:04:08.099Z,2720.00
2019-06-20T07:05:08.150Z,2600.00
2019-06-20T07:06:08.073Z,2528.00
2019-06-20T07:07:08.091Z,2552.00
2019-06-20T07:08:08.069Z,2592.00
2019-06-20T07:09:08.100Z,2612.00
2019-06-20T07:10:08.086Z,2748.00
2019-06-20T07:11:08.015Z,3008.00
2019-06-20T07:12:08.035Z,3356.00
2019-06-20T07:13:08.018Z,3416.00
2019-06-20T07:14:07.996Z,3232.00
2019-06-20T07:15:07.975Z,3164.00
2019-06-20T07:16:07.971Z,3112.00
2019-06-20T07:17:07.947Z,3384.00
2019-06-20T07:18:07.948Z,3408.00
2019-06-20T07:19:07.942Z,3424.00
2019-06-20T07:20:07.937Z,3664.00
2019-06-20T07:21:07.910Z,3440.00
2019-06-20T07:22:07.899Z,3804.00
2019-06-20T07:23:07.906Z,4132.00
2019-06-20T07:24:07.901Z,4236.00
2019-06-20T07:25:07.872Z,4236.00
2019-06-20T07:26:07.890Z,4208.00
2019-06-20T07:27:07.846Z,4012.00
2019-06-20T07:28:07.883Z,3720.00
2019-06-20T07:29:07.821Z,2880.00
2019-06-20T07:30:07.812Z,2428.00
2019-06-20T07:31:07.809Z,2288.00
2019-06-20T07:32:07.814Z,2436.00
2019-06-20T07:33:07.800Z,2584.00
2019-06-20T07:34:07.762Z,2680.00
2019-06-20T07:35:07.773Z,2976.00
2019-06-20T07:36:07.751Z,3344.00
2019-06-20T07:37:07.772Z,3440.00
2019-06-20T07:38:07.739Z,3564.00
2019-06-20T07:39:07.712Z,3056.00
2019-06-20T07:40:07.692Z,2428.00
2019-06-20T07:41:07.712Z,3136.00
2019-06-20T07:42:07.725Z,3144.00
2019-06-20T07:43:07.678Z,2984.00
2019-06-20T07:44:07.650Z,2832.00
2019-06-20T07:45:07.690Z,2296.00
2019-06-20T07:46:07.623Z,2736.00
2019-06-20T07:47:17.066Z,3068.00
2019-06-20T07:48:08.604Z,2732.00
2019-06-20T07:49:07.625Z,3424.00
2019-06-20T07:50:07.581Z,2924.00
2019-06-20T07:51:07.586Z,2900.00
2019-06-20T07:52:07.558Z,2856.00
2019-06-20T07:53:07.563Z,3092.00
2019-06-20T07:54:07.551Z,3216.00
2019-06-20T07:55:07.523Z,2884.00
2019-06-20T07:56:09.513Z,2452.00
2019-06-20T07:57:07.508Z,1992.00
2019-06-20T07:58:07.929Z,1748.00
2019-06-20T07:59:07.506Z,1676.00
2019-06-20T08:00:07.496Z,1692.00
2019-06-20T08:01:07.455Z,1640.00
2019-06-20T08:02:07.444Z,1708.00
2019-06-20T08:03:07.482Z,1960.00
2019-06-20T08:04:07.443Z,1952.00
2019-06-20T08:05:07.440Z,1860.00
2019-06-20T08:06:07.430Z,1824.00
2019-06-20T08:07:07.398Z,1952.00
2019-06-20T08:08:07.378Z,1904.00
2019-06-20T08:09:07.387Z,1800.00
2019-06-20T08:10:07.384Z,1716.00
2019-06-20T08:11:07.365Z,1704.00
2019-06-20T08:12:07.374Z,1656.00
2019-06-20T08:13:07.328Z,1392.00
2019-06-20T08:14:07.320Z,1148.00
2019-06-20T08:15:15.133Z,964.00
2019-06-20T08:16:07.304Z,832.00
2019-06-20T08:17:07.304Z,776.00
2019-06-20T08:18:07.320Z,728.00
2019-06-20T08:19:07.318Z,700.00
2019-06-20T08:20:07.248Z,784.00
2019-06-20T08:21:07.241Z,988.00
2019-06-20T08:22:07.260Z,1160.00
2019-06-20T08:23:07.236Z,1136.00
2019-06-20T08:24:07.247Z,1004.00
2019-06-20T08:25:07.193Z,896.00
2019-06-20T08:26:07.261Z,808.00
2019-06-20T08:27:07.196Z,732.00
2019-06-20T08:28:07.174Z,656.00
2019-06-20T08:29:18.658Z,608.00
2019-06-20T08:30:07.334Z,612.00
2019-06-20T08:31:07.122Z,656.00
2019-06-20T08:32:07.129Z,708.00
2019-06-20T08:33:11.754Z,784.00
2019-06-20T08:34:08.089Z,924.00
2019-06-20T08:35:07.125Z,1012.00
2019-06-20T08:36:07.119Z,1000.00
2019-06-20T08:37:07.051Z,1000.00
2019-06-20T08:38:07.576Z,1004.00
2019-06-20T08:39:07.071Z,824.00
2019-06-20T08:40:07.042Z,688.00
2019-06-20T08:41:07.025Z,592.00
2019-06-20T08:42:07.018Z,584.00
2019-06-20T08:43:06.985Z,604.00
2019-06-20T08:44:06.988Z,616.00
2019-06-20T08:45:06.971Z,636.00
2019-06-20T08:46:10.217Z,616.00
2019-06-20T08:47:06.940Z,596.00
2019-06-20T08:48:07.438Z,556.00
2019-06-20T08:49:06.927Z,568.00
2019-06-20T08:50:06.941Z,572.00
2019-06-20T08:51:06.949Z,556.00
2019-06-20T08:52:06.920Z,544.00
2019-06-20T08:53:06.876Z,536.00
2019-06-20T08:54:06.874Z,548.00
2019-06-20T08:55:06.853Z,604.00
2019-06-20T08:56:06.860Z,636.00
2019-06-20T08:57:06.874Z,608.00
2019-06-20T08:58:06.847Z,652.00
2019-06-20T08:59:06.804Z,736.00
2019-06-20T09:02:06.830Z,1276.00
2019-06-20T09:03:06.805Z,1632.00
2019-06-20T09:04:06.778Z,2028.00
2019-06-20T09:05:06.771Z,2128.00
2019-06-20T09:06:06.749Z,1968.00
2019-06-20T09:07:06.760Z,1852.00
2019-06-20T09:08:06.750Z,1792.00
2019-06-20T09:09:06.718Z,1660.00
2019-06-20T09:10:06.679Z,1628.00
2019-06-20T09:11:06.670Z,1704.00
2019-06-20T09:12:06.663Z,1816.00
2019-06-20T09:13:06.710Z,2020.00
2019-06-20T09:14:06.684Z,2232.00
2019-06-20T09:15:06.667Z,2324.00
2019-06-20T09:16:06.617Z,2180.00
2019-06-20T09:17:06.605Z,2168.00
2019-06-20T09:18:06.631Z,2124.00
2019-06-20T09:19:06.584Z,2000.00
2019-06-20T09:20:06.577Z,2056.00
2019-06-20T09:21:06.578Z,2360.00
2019-06-20T09:22:06.551Z,2404.00
2019-06-20T09:23:06.598Z,2176.00
2019-06-20T09:24:06.526Z,2108.00
2019-06-20T09:25:06.523Z,2036.00
2019-06-20T09:26:06.523Z,2100.00
2019-06-20T09:27:06.535Z,2268.00
2019-06-20T09:28:06.490Z,2552.00
2019-06-20T09:29:06.476Z,2756.00
2019-06-20T09:30:06.460Z,2588.00
2019-06-20T09:31:06.451Z,2392.00
2019-06-20T09:32:06.504Z,2560.00
2019-06-20T09:33:06.450Z,2820.00
2019-06-20T09:34:06.429Z,2884.00
2019-06-20T09:35:06.408Z,2892.00
2019-06-20T09:36:06.396Z,3132.00
2019-06-20T09:37:06.388Z,3136.00
2019-06-20T09:38:06.387Z,2968.00
2019-06-20T09:39:06.402Z,2784.00
2019-06-20T09:40:06.351Z,2584.00
2019-06-20T09:41:06.333Z,2508.00
2019-06-20T09:42:06.337Z,2268.00
2019-06-20T09:43:06.324Z,2108.00
2019-06-20T09:44:06.334Z,1984.00
2019-06-20T09:45:06.297Z,1700.00
2019-06-20T09:46:06.280Z,1700.00
2019-06-20T09:47:06.280Z,1892.00
2019-06-20T09:48:06.272Z,1960.00
2019-06-20T09:49:06.267Z,2100.00
2019-06-20T09:50:06.276Z,2440.00
2019-06-20T09:51:06.225Z,2500.00
2019-06-20T09:52:06.210Z,2344.00
2019-06-20T09:53:06.203Z,2344.00
2019-06-20T09:54:06.197Z,2420.00
2019-06-20T09:55:06.239Z,2508.00
2019-06-20T09:56:06.170Z,2544.00
2019-06-20T09:57:06.166Z,2252.00
2019-06-20T09:58:06.145Z,2304.00
2019-06-20T09:59:06.140Z,2280.00
2019-06-20T10:00:10.452Z,2096.00
2019-06-20T10:01:06.139Z,1772.00
2019-06-20T10:02:06.102Z,1608.00
2019-06-20T10:03:06.088Z,1672.00
2019-06-20T10:04:06.077Z,1792.00
2019-06-20T10:05:06.105Z,2008.00
2019-06-20T10:06:14.046Z,2240.00
2019-06-20T10:07:06.074Z,2492.00
2019-06-20T10:08:06.049Z,2720.00
2019-06-20T10:09:06.023Z,2928.00
2019-06-20T10:10:06.010Z,2904.00
2019-06-20T10:11:06.046Z,2836.00
2019-06-20T10:12:06.033Z,2688.00
2019-06-20T10:13:06.011Z,2728.00
2019-06-20T10:14:05.966Z,2792.00
2019-06-20T10:15:05.957Z,2812.00
2019-06-20T10:16:05.942Z,2648.00
2019-06-20T10:17:06.028Z,2428.00
2019-06-20T10:18:05.939Z,2272.00
2019-06-20T10:19:05.935Z,2236.00
2019-06-20T10:20:05.903Z,2232.00
2019-06-20T10:21:05.886Z,2252.00
2019-06-20T10:22:05.927Z,2308.00
2019-06-20T10:23:05.900Z,2428.00
2019-06-20T10:24:05.916Z,2560.00
2019-06-20T10:25:05.879Z,2696.00
2019-06-20T10:26:05.867Z,2752.00
2019-06-20T10:27:05.861Z,2724.00
2019-06-20T10:28:05.844Z,2660.00
2019-06-20T10:29:05.822Z,2548.00
2019-06-20T10:30:14.338Z,2432.00
2019-06-20T10:31:05.785Z,2300.00
2019-06-20T10:32:05.764Z,2196.00
2019-06-20T10:33:05.767Z,2156.00
2019-06-20T10:34:05.755Z,2180.00
2019-06-20T10:35:05.748Z,2220.00
2019-06-20T10:36:05.782Z,2404.00
2019-06-20T10:37:05.709Z,2556.00
2019-06-20T10:38:05.703Z,2540.00
2019-06-20T10:39:05.693Z,2600.00
2019-06-20T10:40:05.688Z,2656.00
2019-06-20T10:41:06.462Z,2808.00
2019-06-20T10:42:05.653Z,2836.00
2019-06-20T10:43:05.706Z,2880.00
2019-06-20T10:44:05.706Z,2924.00
2019-06-20T10:45:05.619Z,2964.00
2019-06-20T10:46:05.624Z,2884.00
2019-06-20T10:47:05.632Z,2756.00
2019-06-20T10:48:05.624Z,2696.00
2019-06-20T10:49:05.585Z,2716.00
2019-06-20T10:50:05.568Z,2764.00
2019-06-20T10:51:05.579Z,2744.00
2019-06-20T10:52:05.554Z,2720.00
2019-06-20T10:53:05.549Z,2676.00
2019-06-20T10:54:05.553Z,2808.00
2019-06-20T10:55:05.510Z,2804.00
2019-06-20T10:56:05.495Z,2824.00
2019-06-20T10:57:05.515Z,2684.00
2019-06-20T10:58:05.489Z,2656.00
2019-06-20T10:59:05.539Z,2564.00
2019-06-20T11:00:05.453Z,2328.00
2019-06-20T11:01:05.442Z,2080.00
2019-06-20T11:02:07.225Z,1864.00
2019-06-20T11:03:05.438Z,1756.00
2019-06-20T11:04:05.436Z,1668.00
2019-06-20T11:05:05.424Z,1536.00
2019-06-20T11:06:05.396Z,1428.00
2019-06-20T11:07:05.408Z,1360.00
2019-06-20T11:08:05.402Z,1524.00
2019-06-20T11:09:05.371Z,1788.00
2019-06-20T11:10:05.358Z,1840.00
2019-06-20T11:11:05.358Z,1972.00
2019-06-20T11:12:05.366Z,1960.00
2019-06-20T11:13:05.336Z,1872.00
2019-06-20T11:14:05.295Z,1876.00
2019-06-20T11:15:05.312Z,1828.00
2019-06-20T11:16:05.290Z,1832.00
2019-06-20T11:17:05.292Z,1880.00
2019-06-20T11:18:05.270Z,1896.00
2019-06-20T11:19:05.239Z,2000.00
2019-06-20T11:20:05.256Z,2104.00
2019-06-20T11:21:05.254Z,2320.00
2019-06-20T11:22:05.233Z,2504.00
2019-06-20T11:23:05.200Z,2544.00
2019-06-20T11:24:05.189Z,2328.00
2019-06-20T11:25:05.200Z,2208.00
2019-06-20T11:26:05.170Z,2372.00
2019-06-20T11:27:05.170Z,2592.00
2019-06-20T11:28:05.168Z,2600.00
2019-06-20T11:29:05.135Z,2744.00
2019-06-20T11:30:05.171Z,2968.00
2019-06-20T11:31:05.107Z,2708.00
2019-06-20T11:32:05.108Z,2392.00
2019-06-20T11:33:05.100Z,2276.00
2019-06-20T11:34:05.101Z,2300.00
2019-06-20T11:35:05.093Z,2380.00
2019-06-20T11:36:05.064Z,2408.00
2019-06-20T11:37:05.049Z,2512.00
2019-06-20T11:38:05.045Z,2688.00
2019-06-20T11:39:05.037Z,2776.00
2019-06-20T11:40:05.071Z,2848.00
2019-06-20T11:41:05.010Z,2752.00
2019-06-20T11:42:04.998Z,2708.00
2019-06-20T11:43:04.978Z,2592.00
2019-06-20T11:44:04.995Z,2224.00
2019-06-20T11:45:04.979Z,1756.00
2019-06-20T11:46:04.986Z,1612.00
2019-06-20T11:47:04.937Z,1396.00
2019-06-20T11:48:04.929Z,1448.00
2019-06-20T11:49:04.921Z,1420.00
2019-06-20T11:50:04.912Z,1476.00
2019-06-20T11:51:04.920Z,1720.00
2019-06-20T11:52:04.884Z,1736.00
2019-06-20T11:53:04.863Z,1656.00
2019-06-20T11:54:04.889Z,1728.00
2019-06-20T11:55:04.857Z,1868.00
2019-06-20T11:56:04.887Z,1936.00
2019-06-20T11:57:04.849Z,2060.00
2019-06-20T11:58:04.812Z,2056.00
2019-06-20T11:59:04.806Z,2160.00
2019-06-20T12:00:04.788Z,2516.00
2019-06-20T12:01:04.791Z,2416.00
2019-06-20T12:02:04.860Z,2528.00
2019-06-20T12:03:04.789Z,2632.00
2019-06-20T12:04:04.770Z,2552.00
2019-06-20T12:05:04.734Z,2408.00
2019-06-20T12:06:04.721Z,2352.00
2019-06-20T12:07:04.755Z,2456.00
2019-06-20T12:08:04.720Z,2584.00
2019-06-20T12:09:04.689Z,2600.00
2019-06-20T12:10:04.678Z,2448.00
2019-06-20T12:11:04.675Z,2356.00
2019-06-20T12:12:04.702Z,2380.00
2019-06-20T12:13:04.663Z,2488.00
2019-06-20T12:14:04.666Z,2620.00
2019-06-20T12:15:07.045Z,2792.00
2019-06-20T12:16:04.611Z,3052.00
2019-06-20T12:17:04.603Z,3004.00
2019-06-20T12:18:05.036Z,2764.00
2019-06-20T12:19:04.606Z,2372.00
2019-06-20T12:20:04.588Z,2188.00
2019-06-20T12:21:04.554Z,2148.00
2019-06-20T12:22:04.551Z,2184.00
2019-06-20T12:23:04.560Z,2196.00
2019-06-20T12:24:04.549Z,1976.00
2019-06-20T12:25:04.525Z,1896.00
2019-06-20T12:26:04.528Z,1868.00
2019-06-20T12:27:04.499Z,1840.00
2019-06-20T12:28:04.482Z,1808.00
2019-06-20T12:29:04.470Z,1560.00
2019-06-20T12:30:04.473Z,1592.00
2019-06-20T12:31:18.646Z,1644.00
2019-06-20T12:32:04.455Z,1596.00